Main page
METAR-TAF:

METAR-TAF

Airports :

Jinnah International Airport

Karachi, Pakistan

latitude: 24-54N, longitude: 067-08E, elevation: 21 m

Current weather observation

The report was made 25 minutes ago, at 08:00 UTC
Wind 5 kt from the West/Northwest
Temperature 29°C
Humidity 22%
Pressure 1014 hPa
Visibility: 6000 m

METAR: OPKC 080800Z 29005KT 6000 NSC 29/05 Q1014 NOSIG

Time: 13:25 (08:25 UTC)

Forecast

The report was made 4 hours and 55 minutes ago, at 03:30 UTC
Forecast valid from 08 at 06 UTC to 09 at 12 UTC
Wind 10 kt from the West
Visibility: 6000 m
Becoming
from 08 at 19 UTC to 08 at 21 UTC
Wind 5 kt from the West
Visibility: 3500 m
haze
Temporary
from 09 at 00 UTC to 09 at 04 UTC
Wind 3 kt from variable directions
Visibility: 1500 m
mist
From 09 at 0600 UTC
Wind 8 kt from the West with gusts up to 18 kt
Visibility: 6000 m

TAF: OPKC 080330Z 0806/0912 26010KT 6000 NSC BECMG 0819/0821 26005KT 3500 HZ NSC TEMPO 0900/0904 VRB03KT 1500 BR NSC FM090600 26008G18KT 6000 NSC

Weather observations and forecasts of more than 4000 airports (METAR and TAF reports).

The available stations are represented by yellow and red dots on the map.

Hover mouse over dot to see the name of the station.

Then click to see weather observations and forecasts.

To change the map : click on the green buttons with a black cross to zoom in, on the green button with a dash to zoom out, or on the green arrows for adjacent maps.


METAR-TAF: